sensor_id;sensor_type;location;lat;lon;timestamp;pressure;altitude;pressure_sealevel;temperature;humidity
62152;BME280;48139;47.474;19.034;2023-06-14T03:49:55;100187.47;;;14.01;100.00
62152;BME280;48139;47.474;19.034;2023-06-14T03:52:58;100187.47;;;14.01;100.00
62152;BME280;48139;47.474;19.034;2023-06-14T03:56:01;100198.06;;;13.59;100.00
62152;BME280;48139;47.474;19.034;2023-06-14T03:59:05;100192.44;;;13.65;100.00
62152;BME280;48139;47.474;19.034;2023-06-14T04:02:08;100196.09;;;13.77;100.00
62152;BME280;48139;47.474;19.034;2023-06-14T04:05:11;100199.81;;;13.87;100.00
62152;BME280;48139;47.474;19.034;2023-06-14T04:08:15;100194.06;;;13.94;100.00
62152;BME280;48139;47.474;19.034;2023-06-14T04:11:18;100196.84;;;14.05;100.00
62152;BME280;48139;47.474;19.034;2023-06-14T04:14:22;100199.38;;;14.21;100.00
62152;BME280;48139;47.474;19.034;2023-06-14T04:17:25;100201.41;;;14.57;100.00
62152;BME280;48139;47.474;19.034;2023-06-14T04:20:27;100204.88;;;14.97;100.00
62152;BME280;48139;47.474;19.034;2023-06-14T04:23:30;100209.09;;;15.00;100.00
62152;BME280;48139;47.474;19.034;2023-06-14T04:26:33;100215.66;;;15.19;100.00
62152;BME280;48139;47.474;19.034;2023-06-14T04:29:36;100210.47;;;15.43;100.00
62152;BME280;48139;47.474;19.034;2023-06-14T04:32:39;100209.00;;;15.52;100.00
62152;BME280;48139;47.474;19.034;2023-06-14T04:35:43;100213.87;;;15.70;100.00
62152;BME280;48139;47.474;19.034;2023-06-14T04:38:50;100212.41;;;15.79;100.00
62152;BME280;48139;47.474;19.034;2023-06-14T04:41:57;100216.25;;;15.99;100.00
62152;BME280;48139;47.474;19.034;2023-06-14T04:45:03;100214.19;;;16.15;100.00
62152;BME280;48139;47.474;19.034;2023-06-14T04:48:06;100218.38;;;16.30;100.00
62152;BME280;48139;47.474;19.034;2023-06-14T04:51:09;100219.63;;;16.25;100.00
62152;BME280;48139;47.474;19.034;2023-06-14T04:54:12;100223.41;;;16.09;100.00
62152;BME280;48139;47.474;19.034;2023-06-14T04:57:17;100222.12;;;16.15;100.00
62152;BME280;48139;47.474;19.034;2023-06-14T05:00:20;100221.78;;;16.20;100.00
62152;BME280;48139;47.474;19.034;2023-06-14T05:03:23;100228.62;;;16.35;100.00
62152;BME280;48139;47.474;19.034;2023-06-14T05:06:26;100227.81;;;16.45;100.00
62152;BME280;48139;47.474;19.034;2023-06-14T05:09:29;100229.50;;;16.46;100.00
62152;BME280;48139;47.474;19.034;2023-06-14T05:12:32;100228.00;;;16.55;100.00
62152;BME280;48139;47.474;19.034;2023-06-14T05:15:36;100217.72;;;16.63;100.00
62152;BME280;48139;47.474;19.034;2023-06-14T05:18:39;100221.09;;;16.65;100.00
62152;BME280;48139;47.474;19.034;2023-06-14T05:21:42;100228.50;;;16.84;100.00
62152;BME280;48139;47.474;19.034;2023-06-14T05:24:45;100228.16;;;17.00;100.00
62152;BME280;48139;47.474;19.034;2023-06-14T05:27:50;100234.19;;;17.02;100.00
62152;BME280;48139;47.474;19.034;2023-06-14T05:30:53;100233.53;;;17.11;100.00
62152;BME280;48139;47.474;19.034;2023-06-14T05:33:55;100234.50;;;17.32;100.00
62152;BME280;48139;47.474;19.034;2023-06-14T05:36:58;100234.03;;;17.49;100.00
62152;BME280;48139;47.474;19.034;2023-06-14T05:40:03;100238.16;;;17.53;100.00
62152;BME280;48139;47.474;19.034;2023-06-14T05:43:08;100235.84;;;17.38;100.00
62152;BME280;48139;47.474;19.034;2023-06-14T05:46:10;100232.72;;;17.32;100.00
62152;BME280;48139;47.474;19.034;2023-06-14T05:49:13;100233.91;;;17.28;100.00
62152;BME280;48139;47.474;19.034;2023-06-14T05:52:16;100236.94;;;17.35;100.00
62152;BME280;48139;47.474;19.034;2023-06-14T05:55:18;100233.09;;;17.50;100.00
62152;BME280;48139;47.474;19.034;2023-06-14T05:58:21;100234.31;;;17.68;100.00
62152;BME280;48139;47.474;19.034;2023-06-14T06:01:24;100234.09;;;17.83;100.00
62152;BME280;48139;47.474;19.034;2023-06-14T06:04:27;100241.66;;;18.09;100.00
62152;BME280;48139;47.474;19.034;2023-06-14T06:07:30;100240.47;;;18.02;100.00
62152;BME280;48139;47.474;19.034;2023-06-14T06:10:33;100236.47;;;18.08;100.00
62152;BME280;48139;47.474;19.034;2023-06-14T06:13:36;100233.06;;;18.28;100.00
62152;BME280;48139;47.474;19.034;2023-06-14T06:16:46;100235.53;;;18.63;99.82
62152;BME280;48139;47.474;19.034;2023-06-14T06:19:56;100231.00;;;18.75;94.20
62152;BME280;48139;47.474;19.034;2023-06-14T06:23:00;100223.47;;;18.59;96.62
62152;BME280;48139;47.474;19.034;2023-06-14T06:26:03;100241.16;;;18.70;96.92
62152;BME280;48139;47.474;19.034;2023-06-14T06:29:05;100247.22;;;19.13;94.41
62152;BME280;48139;47.474;19.034;2023-06-14T06:32:08;100242.16;;;19.31;91.79
62152;BME280;48139;47.474;19.034;2023-06-14T06:35:11;100238.25;;;19.46;89.31
62152;BME280;48139;47.474;19.034;2023-06-14T06:38:15;100237.00;;;19.50;88.96
62152;BME280;48139;47.474;19.034;2023-06-14T06:41:18;100242.31;;;19.50;87.78
62152;BME280;48139;47.474;19.034;2023-06-14T06:44:21;100238.69;;;19.82;87.55
62152;BME280;48139;47.474;19.034;2023-06-14T06:47:25;100233.03;;;20.05;84.71
62152;BME280;48139;47.474;19.034;2023-06-14T06:50:27;100236.69;;;20.04;80.81
62152;BME280;48139;47.474;19.034;2023-06-14T06:53:30;100238.56;;;19.93;81.62
62152;BME280;48139;47.474;19.034;2023-06-14T06:56:44;100237.09;;;19.69;83.14
62152;BME280;48139;47.474;19.034;2023-06-14T06:59:46;100234.66;;;19.57;85.98
62152;BME280;48139;47.474;19.034;2023-06-14T07:02:49;100241.81;;;19.96;85.74
62152;BME280;48139;47.474;19.034;2023-06-14T07:05:52;100248.00;;;19.97;81.59
62152;BME280;48139;47.474;19.034;2023-06-14T07:08:54;100241.53;;;19.99;83.78
62152;BME280;48139;47.474;19.034;2023-06-14T07:11:57;100237.59;;;19.94;83.60
62152;BME280;48139;47.474;19.034;2023-06-14T07:14:59;100238.88;;;19.90;84.04
62152;BME280;48139;47.474;19.034;2023-06-14T07:18:04;100248.53;;;19.91;80.80
62152;BME280;48139;47.474;19.034;2023-06-14T07:21:09;100238.50;;;20.13;80.10
62152;BME280;48139;47.474;19.034;2023-06-14T07:24:12;100246.59;;;20.42;80.57
62152;BME280;48139;47.474;19.034;2023-06-14T07:27:14;100242.12;;;20.62;78.83
62152;BME280;48139;47.474;19.034;2023-06-14T07:30:17;100240.47;;;20.61;74.23
62152;BME280;48139;47.474;19.034;2023-06-14T07:33:19;100242.25;;;20.51;74.56
62152;BME280;48139;47.474;19.034;2023-06-14T07:36:22;100243.06;;;20.32;75.33
62152;BME280;48139;47.474;19.034;2023-06-14T07:39:25;100251.44;;;20.28;74.37
62152;BME280;48139;47.474;19.034;2023-06-14T07:42:28;100255.62;;;20.30;75.78
62152;BME280;48139;47.474;19.034;2023-06-14T07:45:30;100256.88;;;20.26;76.50
62152;BME280;48139;47.474;19.034;2023-06-14T07:48:34;100257.84;;;20.25;73.25
62152;BME280;48139;47.474;19.034;2023-06-14T07:51:37;100255.69;;;20.49;75.46
62152;BME280;48139;47.474;19.034;2023-06-14T07:54:40;100251.53;;;20.66;75.20
62152;BME280;48139;47.474;19.034;2023-06-14T07:57:43;100257.25;;;20.81;82.76
62152;BME280;48139;47.474;19.034;2023-06-14T08:00:46;100261.59;;;21.01;79.00
62152;BME280;48139;47.474;19.034;2023-06-14T08:03:49;100263.44;;;21.10;81.59
62152;BME280;48139;47.474;19.034;2023-06-14T08:06:52;100264.44;;;21.19;74.99
62152;BME280;48139;47.474;19.034;2023-06-14T08:09:55;100261.47;;;21.41;73.63
62152;BME280;48139;47.474;19.034;2023-06-14T08:12:57;100267.09;;;21.75;72.27
62152;BME280;48139;47.474;19.034;2023-06-14T08:16:01;100270.28;;;21.88;71.04
62152;BME280;48139;47.474;19.034;2023-06-14T08:19:03;100254.66;;;21.93;68.44
62152;BME280;48139;47.474;19.034;2023-06-14T08:22:07;100265.19;;;21.58;70.22
62152;BME280;48139;47.474;19.034;2023-06-14T08:25:10;100256.47;;;21.65;69.82
62152;BME280;48139;47.474;19.034;2023-06-14T08:28:15;100260.03;;;21.47;72.26
62152;BME280;48139;47.474;19.034;2023-06-14T08:31:17;100264.44;;;21.28;81.55
62152;BME280;48139;47.474;19.034;2023-06-14T08:34:20;100265.59;;;21.72;73.91
62152;BME280;48139;47.474;19.034;2023-06-14T08:37:22;100273.50;;;21.92;73.03
62152;BME280;48139;47.474;19.034;2023-06-14T08:40:27;100274.34;;;22.02;67.44
62152;BME280;48139;47.474;19.034;2023-06-14T08:43:32;100273.19;;;21.95;71.25
62152;BME280;48139;47.474;19.034;2023-06-14T08:46:37;100280.78;;;21.99;69.28
62152;BME280;48139;47.474;19.034;2023-06-14T08:49:40;100281.34;;;22.03;70.22
62152;BME280;48139;47.474;19.034;2023-06-14T08:52:53;100280.19;;;22.05;73.08
62152;BME280;48139;47.474;19.034;2023-06-14T08:55:56;100293.34;;;21.80;69.02
62152;BME280;48139;47.474;19.034;2023-06-14T08:59:00;100298.37;;;21.83;70.92
62152;BME280;48139;47.474;19.034;2023-06-14T09:02:06;100303.06;;;21.61;73.30
62152;BME280;48139;47.474;19.034;2023-06-14T09:05:15;100300.03;;;21.08;76.19
62152;BME280;48139;47.474;19.034;2023-06-14T09:08:20;100299.03;;;21.00;77.10
62152;BME280;48139;47.474;19.034;2023-06-14T09:11:25;100302.00;;;21.35;76.17
62152;BME280;48139;47.474;19.034;2023-06-14T09:14:28;100302.00;;;21.35;69.08
62152;BME280;48139;47.474;19.034;2023-06-14T09:17:35;100305.84;;;21.69;67.41
62152;BME280;48139;47.474;19.034;2023-06-14T09:20:38;100306.81;;;21.68;68.01
62152;BME280;48139;47.474;19.034;2023-06-14T09:23:48;100307.09;;;21.85;68.95
62152;BME280;48139;47.474;19.034;2023-06-14T09:26:51;100302.25;;;22.07;66.36
62152;BME280;48139;47.474;19.034;2023-06-14T09:29:54;100309.78;;;22.12;67.81
62152;BME280;48139;47.474;19.034;2023-06-14T09:32:57;100304.41;;;21.85;68.05
62152;BME280;48139;47.474;19.034;2023-06-14T09:36:04;100300.91;;;21.74;80.15
62152;BME280;48139;47.474;19.034;2023-06-14T09:39:07;100292.16;;;22.01;73.40
62152;BME280;48139;47.474;19.034;2023-06-14T09:42:18;100287.81;;;21.91;74.21
62152;BME280;48139;47.474;19.034;2023-06-14T09:45:25;100290.63;;;21.89;85.83
62152;BME280;48139;47.474;19.034;2023-06-14T09:48:32;100283.47;;;21.90;69.62
62152;BME280;48139;47.474;19.034;2023-06-14T09:51:42;100273.34;;;22.03;63.60
62152;BME280;48139;47.474;19.034;2023-06-14T09:54:47;100282.91;;;22.68;80.63
62152;BME280;48139;47.474;19.034;2023-06-14T09:57:50;100273.34;;;22.93;57.68
62152;BME280;48139;47.474;19.034;2023-06-14T10:00:54;100275.47;;;23.07;71.74
62152;BME280;48139;47.474;19.034;2023-06-14T10:04:07;100274.47;;;23.26;60.16
62152;BME280;48139;47.474;19.034;2023-06-14T10:07:19;100270.31;;;23.49;54.63
62152;BME280;48139;47.474;19.034;2023-06-14T10:10:22;100270.78;;;23.70;54.05
62152;BME280;48139;47.474;19.034;2023-06-14T10:13:26;100270.44;;;23.65;55.13
62152;BME280;48139;47.474;19.034;2023-06-14T10:16:41;100257.72;;;23.24;53.40
62152;BME280;48139;47.474;19.034;2023-06-14T10:19:50;100264.22;;;23.65;61.88
62152;BME280;48139;47.474;19.034;2023-06-14T10:23:22;100270.66;;;24.14;54.74
62152;BME280;48139;47.474;19.034;2023-06-14T10:26:25;100264.44;;;24.05;58.79
62152;BME280;48139;47.474;19.034;2023-06-14T10:29:29;100257.78;;;24.18;54.90
62152;BME280;48139;47.474;19.034;2023-06-14T10:32:35;100252.31;;;24.19;50.64
62152;BME280;48139;47.474;19.034;2023-06-14T10:35:37;100247.28;;;24.24;52.98
62152;BME280;48139;47.474;19.034;2023-06-14T10:38:41;100255.59;;;24.63;48.76
62152;BME280;48139;47.474;19.034;2023-06-14T10:41:55;100252.94;;;24.87;50.96
62152;BME280;48139;47.474;19.034;2023-06-14T10:44:58;100252.31;;;24.94;51.69
62152;BME280;48139;47.474;19.034;2023-06-14T10:48:05;100248.47;;;25.12;49.10
62152;BME280;48139;47.474;19.034;2023-06-14T10:51:41;100248.13;;;25.15;49.87
62152;BME280;48139;47.474;19.034;2023-06-14T10:58:22;100245.09;;;25.18;45.75
62152;BME280;48139;47.474;19.034;2023-06-14T11:04:52;100250.63;;;25.25;52.57
62152;BME280;48139;47.474;19.034;2023-06-14T11:11:32;100238.09;;;25.09;47.11
62152;BME280;48139;47.474;19.034;2023-06-14T11:14:39;100230.50;;;25.37;51.11
62152;BME280;48139;47.474;19.034;2023-06-14T11:17:52;100229.63;;;25.53;48.59
62152;BME280;48139;47.474;19.034;2023-06-14T11:20:59;100231.88;;;25.17;45.17
62152;BME280;48139;47.474;19.034;2023-06-14T11:24:02;100226.31;;;24.78;46.99
62152;BME280;48139;47.474;19.034;2023-06-14T11:27:06;100225.31;;;24.87;46.41
62152;BME280;48139;47.474;19.034;2023-06-14T11:30:09;100223.16;;;25.07;42.93
62152;BME280;48139;47.474;19.034;2023-06-14T11:33:18;100227.16;;;25.27;45.08
62152;BME280;48139;47.474;19.034;2023-06-14T11:36:21;100225.84;;;25.07;41.15
62152;BME280;48139;47.474;19.034;2023-06-14T11:39:24;100229.66;;;24.64;48.52
62152;BME280;48139;47.474;19.034;2023-06-14T11:42:28;100226.06;;;24.31;45.28
62152;BME280;48139;47.474;19.034;2023-06-14T11:45:31;100226.16;;;24.13;44.42
62152;BME280;48139;47.474;19.034;2023-06-14T11:48:42;100214.53;;;23.54;45.71
62152;BME280;48139;47.474;19.034;2023-06-14T11:51:46;100218.03;;;23.89;45.75
62152;BME280;48139;47.474;19.034;2023-06-14T11:54:48;100221.50;;;23.81;43.51
62152;BME280;48139;47.474;19.034;2023-06-14T11:57:53;100217.72;;;23.58;44.41
62152;BME280;48139;47.474;19.034;2023-06-14T12:00:57;100218.44;;;23.68;45.19
62152;BME280;48139;47.474;19.034;2023-06-14T12:04:01;100216.94;;;24.07;42.11
62152;BME280;48139;47.474;19.034;2023-06-14T12:10:20;100227.25;;;24.36;45.83
62152;BME280;48139;47.474;19.034;2023-06-14T12:13:24;100229.44;;;24.49;42.52
62152;BME280;48139;47.474;19.034;2023-06-14T12:16:32;100234.16;;;24.47;41.83
62152;BME280;48139;47.474;19.034;2023-06-14T12:19:45;100227.16;;;24.78;44.89
62152;BME280;48139;47.474;19.034;2023-06-14T12:25:53;100233.06;;;23.56;48.24
62152;BME280;48139;47.474;19.034;2023-06-14T12:28:56;100231.06;;;22.88;50.00
62152;BME280;48139;47.474;19.034;2023-06-14T12:31:59;100231.34;;;22.68;49.65
62152;BME280;48139;47.474;19.034;2023-06-14T12:35:02;100233.28;;;22.75;55.43
62152;BME280;48139;47.474;19.034;2023-06-14T12:38:07;100237.56;;;23.04;50.58
62152;BME280;48139;47.474;19.034;2023-06-14T12:41:10;100228.53;;;23.05;49.33
62152;BME280;48139;47.474;19.034;2023-06-14T12:44:12;100225.03;;;23.30;50.17
62152;BME280;48139;47.474;19.034;2023-06-14T12:47:15;100223.56;;;23.53;50.99
62152;BME280;48139;47.474;19.034;2023-06-14T12:50:18;100225.59;;;23.59;52.03
62152;BME280;48139;47.474;19.034;2023-06-14T12:53:24;100231.97;;;23.41;48.05
62152;BME280;48139;47.474;19.034;2023-06-14T12:56:27;100226.34;;;23.26;48.94
62152;BME280;48139;47.474;19.034;2023-06-14T12:59:29;100226.59;;;23.15;50.31
62152;BME280;48139;47.474;19.034;2023-06-14T13:02:35;100226.19;;;22.84;50.85
62152;BME280;48139;47.474;19.034;2023-06-14T13:05:38;100217.16;;;23.03;50.80
62152;BME280;48139;47.474;19.034;2023-06-14T13:08:43;100220.59;;;22.95;51.61
62152;BME280;48139;47.474;19.034;2023-06-14T13:11:46;100217.19;;;22.67;50.28
62152;BME280;48139;47.474;19.034;2023-06-14T13:14:49;100215.12;;;22.61;52.54
62152;BME280;48139;47.474;19.034;2023-06-14T13:17:52;100210.28;;;22.65;50.09
62152;BME280;48139;47.474;19.034;2023-06-14T13:20:54;100215.94;;;22.44;50.37
62152;BME280;48139;47.474;19.034;2023-06-14T13:23:58;100220.37;;;22.53;50.92
62152;BME280;48139;47.474;19.034;2023-06-14T13:27:00;100219.63;;;22.78;51.03
62152;BME280;48139;47.474;19.034;2023-06-14T13:30:03;100223.19;;;22.69;50.87
62152;BME280;48139;47.474;19.034;2023-06-14T13:33:09;100218.81;;;22.78;50.31
62152;BME280;48139;47.474;19.034;2023-06-14T13:36:12;100220.91;;;23.10;49.76
62152;BME280;48139;47.474;19.034;2023-06-14T13:39:15;100219.97;;;23.01;48.81
62152;BME280;48139;47.474;19.034;2023-06-14T13:42:18;100221.69;;;22.84;49.55
62152;BME280;48139;47.474;19.034;2023-06-14T13:45:20;100210.78;;;22.78;50.13
62152;BME280;48139;47.474;19.034;2023-06-14T13:48:23;100217.97;;;22.77;50.29
62152;BME280;48139;47.474;19.034;2023-06-14T13:51:25;100214.66;;;22.83;50.16
62152;BME280;48139;47.474;19.034;2023-06-14T13:54:29;100205.97;;;22.81;49.93
62152;BME280;48139;47.474;19.034;2023-06-14T13:57:32;100203.72;;;22.95;50.59
62152;BME280;48139;47.474;19.034;2023-06-14T14:00:35;100200.59;;;22.99;50.13
62152;BME280;48139;47.474;19.034;2023-06-14T14:03:42;100204.34;;;22.88;48.44
62152;BME280;48139;47.474;19.034;2023-06-14T14:06:46;100207.84;;;23.07;50.09
62152;BME280;48139;47.474;19.034;2023-06-14T14:09:50;100204.97;;;22.82;49.06
62152;BME280;48139;47.474;19.034;2023-06-14T14:12:53;100212.47;;;22.79;49.12
62152;BME280;48139;47.474;19.034;2023-06-14T14:15:57;100202.22;;;22.92;51.33
62152;BME280;48139;47.474;19.034;2023-06-14T14:19:00;100206.94;;;22.98;51.60
62152;BME280;48139;47.474;19.034;2023-06-14T14:22:03;100203.28;;;22.81;52.13
62152;BME280;48139;47.474;19.034;2023-06-14T14:25:08;100207.31;;;22.50;49.10
62152;BME280;48139;47.474;19.034;2023-06-14T14:28:11;100199.00;;;22.35;49.07
62152;BME280;48139;47.474;19.034;2023-06-14T14:31:16;100202.81;;;22.33;48.91
62152;BME280;48139;47.474;19.034;2023-06-14T14:34:18;100204.25;;;22.45;49.36
62152;BME280;48139;47.474;19.034;2023-06-14T14:37:21;100208.09;;;22.60;51.26
62152;BME280;48139;47.474;19.034;2023-06-14T14:40:24;100205.34;;;22.52;49.04
62152;BME280;48139;47.474;19.034;2023-06-14T14:43:33;100197.63;;;22.49;49.55
62152;BME280;48139;47.474;19.034;2023-06-14T14:46:36;100201.44;;;22.46;49.52
62152;BME280;48139;47.474;19.034;2023-06-14T14:49:38;100211.38;;;22.72;50.41
62152;BME280;48139;47.474;19.034;2023-06-14T14:52:41;100205.47;;;22.68;50.64
62152;BME280;48139;47.474;19.034;2023-06-14T14:55:45;100206.66;;;22.48;48.80
62152;BME280;48139;47.474;19.034;2023-06-14T14:58:48;100204.59;;;22.42;49.61
62152;BME280;48139;47.474;19.034;2023-06-14T15:01:51;100204.97;;;22.47;49.86
62152;BME280;48139;47.474;19.034;2023-06-14T15:04:54;100204.03;;;22.56;50.84
62152;BME280;48139;47.474;19.034;2023-06-14T15:07:59;100202.44;;;22.45;54.02
62152;BME280;48139;47.474;19.034;2023-06-14T15:11:02;100192.87;;;22.25;50.93
62152;BME280;48139;47.474;19.034;2023-06-14T15:14:05;100189.78;;;22.30;51.71
62152;BME280;48139;47.474;19.034;2023-06-14T15:17:08;100187.62;;;22.33;51.64
62152;BME280;48139;47.474;19.034;2023-06-14T15:20:10;100193.63;;;22.18;52.00
62152;BME280;48139;47.474;19.034;2023-06-14T15:23:15;100191.97;;;22.17;52.15
62152;BME280;48139;47.474;19.034;2023-06-14T15:26:22;100195.84;;;22.04;51.25
62152;BME280;48139;47.474;19.034;2023-06-14T15:29:26;100187.41;;;21.99;50.94
62152;BME280;48139;47.474;19.034;2023-06-14T15:32:29;100181.41;;;21.97;51.04
62152;BME280;48139;47.474;19.034;2023-06-14T15:35:32;100191.09;;;21.89;50.40
62152;BME280;48139;47.474;19.034;2023-06-14T15:38:35;100186.16;;;21.94;50.11
62152;BME280;48139;47.474;19.034;2023-06-14T15:41:38;100185.06;;;21.87;51.21
62152;BME280;48139;47.474;19.034;2023-06-14T15:44:40;100181.09;;;21.73;50.52
62152;BME280;48139;47.474;19.034;2023-06-14T15:47:44;100179.03;;;21.67;49.74
62152;BME280;48139;47.474;19.034;2023-06-14T15:50:47;100177.47;;;21.64;50.17
62152;BME280;48139;47.474;19.034;2023-06-14T15:53:50;100179.69;;;21.69;49.38
62152;BME280;48139;47.474;19.034;2023-06-14T15:56:52;100182.53;;;21.67;48.93
62152;BME280;48139;47.474;19.034;2023-06-14T15:59:55;100184.16;;;21.78;48.79
62152;BME280;48139;47.474;19.034;2023-06-14T16:02:58;100179.03;;;21.67;47.15
